createdAt,value
2022-11-21T00:01:21.326Z,77789.09
2022-11-21T00:03:49.048Z,77793.16
2022-11-21T00:06:17.114Z,77785.03
2022-11-21T00:08:45.322Z,77785.03
2022-11-21T00:11:12.809Z,77809.38
2022-11-21T00:13:40.118Z,77764.75
2022-11-21T00:16:12.551Z,77752.59
2022-11-21T00:18:40.788Z,77744.47
2022-11-21T00:21:11.892Z,77728.25
2022-11-21T00:23:39.072Z,77712.03
2022-11-21T00:26:11.373Z,77716.09
2022-11-21T00:28:38.688Z,77705.94
2022-11-21T00:31:06.257Z,77705.94
2022-11-21T00:33:37.299Z,77703.94
2022-11-21T00:36:09.213Z,77695.81
2022-11-21T00:38:37.236Z,77695.81
2022-11-21T00:41:04.612Z,77691.75
2022-11-21T00:43:32.330Z,77683.66
2022-11-21T00:46:01.464Z,77679.59
2022-11-21T00:48:30.119Z,77673.50
2022-11-21T00:50:57.199Z,77663.38
2022-11-21T00:53:24.309Z,77659.31
2022-11-21T00:55:51.074Z,77659.31
2022-11-21T00:58:18.203Z,77655.25
2022-11-21T01:00:45.080Z,77647.16
2022-11-21T01:03:12.424Z,77651.19
2022-11-21T01:05:39.288Z,77647.16
2022-11-21T01:08:06.526Z,77639.03
2022-11-21T01:10:35.026Z,77643.09
2022-11-21T01:13:02.773Z,77645.13
2022-11-21T01:15:29.790Z,77643.09
2022-11-21T01:17:57.300Z,77659.31
2022-11-21T01:20:24.126Z,77659.31
2022-11-21T01:22:51.393Z,77657.28
2022-11-21T01:25:18.393Z,77663.38
2022-11-21T01:27:45.640Z,77671.47
2022-11-21T01:30:14.501Z,77667.44
2022-11-21T01:32:41.853Z,77687.69
2022-11-21T01:35:08.822Z,77687.69
2022-11-21T01:37:36.199Z,77695.81
2022-11-21T01:40:04.083Z,77691.75
2022-11-21T01:42:46.702Z,77687.69
2022-11-21T01:45:51.465Z,77691.75
2022-11-21T01:48:19.328Z,77695.81
2022-11-21T01:50:46.306Z,77701.91
2022-11-21T01:53:13.511Z,77705.94
2022-11-21T01:55:40.409Z,77707.97
2022-11-21T01:58:07.476Z,77707.97
2022-11-21T02:00:38.507Z,77716.09
2022-11-21T02:03:10.338Z,77716.09
2022-11-21T02:05:39.207Z,77720.16
2022-11-21T02:08:19.497Z,77716.09
2022-11-21T02:11:13.585Z,77722.19
2022-11-21T02:13:40.817Z,77738.41
2022-11-21T02:16:08.389Z,77740.44
2022-11-21T02:18:35.686Z,77752.59
2022-11-21T02:21:23.474Z,77756.66
2022-11-21T02:24:00.217Z,77760.69
2022-11-21T02:26:27.443Z,77768.81
2022-11-21T02:28:54.613Z,77772.88
2022-11-21T02:31:21.471Z,77776.94
2022-11-21T02:33:48.552Z,77787.06
2022-11-21T02:36:41.582Z,77797.19
2022-11-21T02:39:14.088Z,77805.31
2022-11-21T02:41:48.656Z,77817.47
2022-11-21T02:44:24.503Z,77821.53
2022-11-21T02:46:52.130Z,77817.47
2022-11-21T02:49:28.444Z,77813.44
2022-11-21T02:51:55.340Z,77817.47
2022-11-21T02:54:22.387Z,77821.53
2022-11-21T02:56:49.190Z,77821.53
2022-11-21T02:59:16.274Z,77833.69
2022-11-21T03:01:43.177Z,77837.75
2022-11-21T03:04:10.215Z,77845.88
2022-11-21T03:06:37.214Z,77845.88
2022-11-21T03:09:04.282Z,77845.88
2022-11-21T03:11:31.132Z,77858.03
2022-11-21T03:13:58.212Z,77858.03
2022-11-21T03:16:24.977Z,77851.97
2022-11-21T03:18:52.039Z,77860.06
2022-11-21T03:21:18.894Z,77860.06
2022-11-21T03:23:46.125Z,77882.38
2022-11-21T03:26:13.316Z,77886.44
2022-11-21T03:28:42.887Z,77890.47
2022-11-21T03:31:09.862Z,77886.44
2022-11-21T03:33:37.069Z,77890.47
2022-11-21T03:36:04.117Z,77882.38
2022-11-21T03:38:31.173Z,77878.31
2022-11-21T03:40:58.173Z,77880.34
2022-11-21T03:43:25.591Z,77882.38
2022-11-21T03:45:52.408Z,77882.38
2022-11-21T03:48:19.569Z,77886.44
2022-11-21T03:50:46.417Z,77890.47
2022-11-21T03:53:13.693Z,77894.53
2022-11-21T03:55:43.140Z,77890.47
2022-11-21T03:58:10.453Z,77886.44
2022-11-21T04:00:37.289Z,77894.53
2022-11-21T04:03:04.340Z,77890.47
2022-11-21T04:05:31.135Z,77894.53
2022-11-21T04:07:58.170Z,77890.47
2022-11-21T04:10:25.029Z,77904.69
2022-11-21T04:13:10.193Z,77914.81
2022-11-21T04:15:37.438Z,77904.69
2022-11-21T04:18:04.369Z,77918.88
2022-11-21T04:20:31.409Z,77912.78
2022-11-21T04:22:58.213Z,77914.81
2022-11-21T04:25:25.282Z,77906.72
2022-11-21T04:27:52.036Z,77910.75
2022-11-21T04:30:19.244Z,77906.72
2022-11-21T04:32:47.675Z,77918.88
2022-11-21T04:35:15.036Z,77922.94
2022-11-21T04:37:41.793Z,77922.94
2022-11-21T04:40:09.383Z,77926.97
2022-11-21T04:42:36.341Z,77926.97
2022-11-21T04:45:03.788Z,77918.88
2022-11-21T04:47:31.178Z,77920.91
2022-11-21T04:49:58.732Z,77922.94
2022-11-21T04:52:25.602Z,77922.94
2022-11-21T04:54:52.727Z,77922.94
2022-11-21T04:57:19.539Z,77926.97
2022-11-21T04:59:46.585Z,77918.88
2022-11-21T05:02:13.558Z,77914.81
2022-11-21T05:04:40.708Z,77920.91
2022-11-21T05:07:07.678Z,77922.94
2022-11-21T05:09:34.891Z,77931.03
2022-11-21T05:12:20.376Z,77929.00
2022-11-21T05:14:47.511Z,77926.97
2022-11-21T05:17:14.462Z,77929.00
2022-11-21T05:19:41.545Z,77929.00
2022-11-21T05:22:08.505Z,77943.22
2022-11-21T05:24:35.665Z,77947.25
2022-11-21T05:27:02.463Z,77947.25
2022-11-21T05:29:29.695Z,77955.38
2022-11-21T05:31:56.512Z,77961.47
2022-11-21T05:34:23.886Z,77963.50
2022-11-21T05:36:57.159Z,77955.38
2022-11-21T05:39:25.377Z,77969.56
2022-11-21T05:41:52.280Z,77979.72
2022-11-21T05:44:19.418Z,77967.53
2022-11-21T05:46:46.495Z,77971.59
2022-11-21T05:49:13.858Z,77959.44
2022-11-21T05:51:40.883Z,77963.50
2022-11-21T05:54:07.999Z,77955.38
2022-11-21T05:56:35.202Z,77955.38
2022-11-21T05:59:02.261Z,77951.31
2022-11-21T06:01:47.767Z,77939.16
2022-11-21T06:04:14.975Z,77939.16
2022-11-21T06:06:41.817Z,77939.16
2022-11-21T06:09:08.905Z,77951.31
2022-11-21T06:11:35.675Z,77963.50
2022-11-21T06:14:02.793Z,77967.53
2022-11-21T06:16:30.419Z,77967.53
2022-11-21T06:18:58.885Z,77971.59
2022-11-21T06:21:28.518Z,77971.59
2022-11-21T06:23:57.487Z,77971.59
2022-11-21T06:26:27.277Z,77963.50
2022-11-21T06:28:54.739Z,77951.31
2022-11-21T06:31:24.256Z,77949.28
2022-11-21T06:33:56.404Z,77955.38
2022-11-21T06:36:23.615Z,77943.22
2022-11-21T06:38:53.565Z,77929.00
2022-11-21T06:41:23.281Z,77935.09
2022-11-21T06:43:50.545Z,77914.81
2022-11-21T06:46:17.627Z,77906.72
2022-11-21T06:48:45.165Z,77892.50
2022-11-21T06:51:20.396Z,77890.47
2022-11-21T06:53:55.792Z,77884.41
2022-11-21T06:56:27.178Z,77870.22
2022-11-21T06:58:54.561Z,77866.16
2022-11-21T07:01:22.261Z,77847.91
2022-11-21T07:03:49.534Z,77849.94
2022-11-21T07:06:16.334Z,77829.66
2022-11-21T07:08:43.578Z,77825.59
2022-11-21T07:11:28.520Z,77811.41
2022-11-21T07:13:56.705Z,77803.28
2022-11-21T07:16:26.204Z,77785.03
2022-11-21T07:18:54.086Z,77772.88
2022-11-21T07:21:21.368Z,77760.69
2022-11-21T07:23:50.545Z,77744.47
2022-11-21T07:26:17.445Z,77740.44
2022-11-21T07:28:44.661Z,77724.19
2022-11-21T07:31:13.947Z,77712.03
2022-11-21T07:33:43.739Z,77712.03
2022-11-21T07:36:14.350Z,77699.88
2022-11-21T07:38:42.131Z,77699.88
2022-11-21T07:41:10.659Z,77687.69
2022-11-21T07:43:38.706Z,77679.59
2022-11-21T07:46:05.948Z,77671.47
2022-11-21T07:48:33.204Z,77675.53
2022-11-21T07:51:03.780Z,77671.47
2022-11-21T07:53:31.011Z,77675.53
2022-11-21T07:56:00.456Z,77657.28
2022-11-21T07:58:45.392Z,77671.47
2022-11-21T08:02:31.768Z,77671.47
2022-11-21T08:04:59.209Z,77683.66
2022-11-21T08:07:36.647Z,77707.97
2022-11-21T08:10:04.819Z,77687.69
2022-11-21T08:12:33.177Z,77671.47
2022-11-21T08:15:00.646Z,77671.47
2022-11-21T08:17:27.762Z,77675.53
2022-11-21T08:19:55.218Z,77659.31
2022-11-21T08:22:22.152Z,77651.19
2022-11-21T08:25:00.526Z,77649.19
2022-11-21T08:27:57.840Z,77634.97
2022-11-21T08:30:25.517Z,77628.91
2022-11-21T08:32:52.888Z,77628.91
2022-11-21T08:35:20.500Z,77622.81
2022-11-21T08:38:00.752Z,77622.81
2022-11-21T08:40:29.871Z,77614.69
2022-11-21T08:43:01.680Z,77602.53
2022-11-21T08:45:29.418Z,77600.50
2022-11-21T08:47:56.900Z,77596.44
2022-11-21T08:50:24.855Z,77586.31
2022-11-21T08:52:52.158Z,77570.09
2022-11-21T08:55:19.661Z,77553.88
2022-11-21T08:57:46.571Z,77533.59
2022-11-21T09:00:14.674Z,77517.38
2022-11-21T09:02:41.908Z,77505.22
2022-11-21T09:05:09.892Z,77480.88
2022-11-21T09:07:37.431Z,77464.66
2022-11-21T09:10:05.336Z,77460.59
2022-11-21T09:12:32.218Z,77444.38
2022-11-21T09:15:17.908Z,77438.31
2022-11-21T09:21:51.262Z,77416.00
2022-11-21T09:24:18.536Z,77407.88
2022-11-21T09:26:46.957Z,77395.72
2022-11-21T09:29:15.236Z,77373.41
2022-11-21T09:31:44.425Z,77371.38
2022-11-21T09:34:12.080Z,77363.28
2022-11-21T09:36:39.841Z,77355.16
2022-11-21T09:39:07.532Z,77334.91
2022-11-21T09:42:01.515Z,77334.91
2022-11-21T09:44:43.892Z,77340.97
2022-11-21T09:47:31.198Z,77330.84
2022-11-21T09:50:04.699Z,77338.94
2022-11-21T09:52:51.938Z,77340.97
2022-11-21T09:55:36.505Z,77326.78
2022-11-21T09:58:07.275Z,77318.66
2022-11-21T10:00:36.358Z,77314.63
2022-11-21T10:03:03.803Z,77314.63
2022-11-21T10:05:43.987Z,77302.44
2022-11-21T10:08:28.959Z,77294.34
2022-11-21T10:11:14.149Z,77282.19
2022-11-21T10:14:21.190Z,77261.91
2022-11-21T10:17:28.786Z,77259.88
2022-11-21T10:20:07.870Z,77263.94
2022-11-21T10:23:12.393Z,77249.75
2022-11-21T10:25:40.022Z,77245.69
2022-11-21T10:28:26.395Z,77233.53
2022-11-21T10:30:57.024Z,77223.38
2022-11-21T10:33:33.038Z,77219.31
2022-11-21T10:36:12.240Z,77209.19
2022-11-21T10:38:43.314Z,77201.06
2022-11-21T10:41:16.079Z,77188.91
2022-11-21T10:44:09.808Z,77172.69
2022-11-21T10:46:36.761Z,77148.38
2022-11-21T10:49:04.773Z,77132.16
2022-11-21T10:51:48.739Z,77124.03
2022-11-21T10:54:34.430Z,77119.97
2022-11-21T10:57:18.199Z,77122.00
2022-11-21T11:00:01.269Z,77136.19
2022-11-21T11:02:28.857Z,77132.16
2022-11-21T11:05:20.880Z,77119.97
2022-11-21T11:08:14.752Z,77109.84
2022-11-21T11:11:02.249Z,77103.75
2022-11-21T11:13:51.182Z,77095.66
2022-11-21T11:16:24.302Z,77071.31
2022-11-21T11:19:02.297Z,77071.31
2022-11-21T11:21:38.734Z,77051.06
2022-11-21T11:24:27.689Z,77030.78
2022-11-21T11:27:05.103Z,77014.56
2022-11-21T11:29:49.057Z,77000.38
2022-11-21T11:32:21.535Z,76980.09
2022-11-21T11:35:00.806Z,76961.84
2022-11-21T11:37:42.441Z,76957.78
2022-11-21T11:40:26.249Z,76941.56
2022-11-21T11:43:49.814Z,76925.34
2022-11-21T11:46:51.565Z,76933.47
2022-11-21T11:49:52.750Z,76937.53
2022-11-21T11:52:24.558Z,76953.75
2022-11-21T11:55:01.985Z,76941.56
2022-11-21T11:57:34.637Z,76941.56
2022-11-21T12:00:16.362Z,76941.56
2022-11-21T12:03:13.205Z,76937.53
2022-11-21T12:05:56.924Z,76925.34
2022-11-21T12:08:48.992Z,76876.69
2022-11-21T12:11:44.254Z,76846.28
2022-11-21T12:14:50.400Z,76840.22
2022-11-21T12:17:21.533Z,76846.28
2022-11-21T12:19:52.738Z,76836.16
2022-11-21T12:22:20.037Z,76840.22
2022-11-21T12:24:48.121Z,76844.25
2022-11-21T12:27:18.487Z,76860.47
2022-11-21T12:30:14.967Z,76905.09
2022-11-21T12:32:55.947Z,76909.13
2022-11-21T12:36:09.013Z,76919.28
2022-11-21T12:38:45.138Z,76929.41
2022-11-21T12:42:00.840Z,76929.41
2022-11-21T12:45:24.087Z,76929.41
2022-11-21T12:48:29.087Z,76937.53
2022-11-21T12:51:14.946Z,76937.53
2022-11-21T12:54:11.624Z,76933.47
2022-11-21T12:56:38.927Z,76941.56
2022-11-21T12:59:08.060Z,76949.69
2022-11-21T13:01:53.033Z,76953.75
2022-11-21T13:04:30.656Z,76953.75
2022-11-21T13:06:59.787Z,76961.84
2022-11-21T13:09:31.579Z,76965.91
2022-11-21T13:12:05.480Z,76969.94
2022-11-21T13:14:44.473Z,76969.94
2022-11-21T13:17:27.264Z,76969.94
2022-11-21T13:20:14.299Z,76978.06
2022-11-21T13:22:42.097Z,76963.88
2022-11-21T13:25:40.475Z,76957.78
2022-11-21T13:28:14.383Z,76955.75
2022-11-21T13:30:55.844Z,76947.66
2022-11-21T13:33:36.189Z,76945.63
2022-11-21T13:36:07.930Z,76945.63
2022-11-21T13:38:53.842Z,76949.69
2022-11-21T13:41:55.211Z,76957.78
2022-11-21T13:44:32.211Z,76961.84
2022-11-21T13:47:20.027Z,76961.84
2022-11-21T13:50:10.078Z,76957.78
2022-11-21T13:53:24.083Z,76953.75
2022-11-21T13:56:18.981Z,76953.75
2022-11-21T13:58:52.129Z,76957.78
2022-11-21T14:01:37.490Z,76963.88
2022-11-21T14:04:35.430Z,76969.94
2022-11-21T14:07:24.185Z,76965.91
2022-11-21T14:09:57.604Z,76969.94
2022-11-21T14:12:44.024Z,76969.94
2022-11-21T14:15:51.179Z,76963.88
2022-11-21T14:18:24.555Z,76969.94
2022-11-21T14:20:58.195Z,76969.94
2022-11-21T14:23:29.233Z,76971.97
2022-11-21T14:26:05.389Z,76971.97
2022-11-21T14:28:35.411Z,76974.00
2022-11-21T14:31:06.635Z,76965.91
2022-11-21T14:33:36.268Z,76974.00
2022-11-21T14:36:18.836Z,76986.16
2022-11-21T14:39:07.629Z,76994.28
2022-11-21T14:41:41.194Z,77004.41
2022-11-21T14:44:08.548Z,77002.41
2022-11-21T14:46:36.857Z,77002.41
2022-11-21T14:49:16.468Z,77004.41
2022-11-21T14:51:46.436Z,77010.50
2022-11-21T14:54:26.850Z,77022.66
2022-11-21T14:57:07.892Z,77022.66
2022-11-21T14:59:43.024Z,77018.63
2022-11-21T15:02:26.393Z,77040.91
2022-11-21T15:04:58.270Z,77055.09
2022-11-21T15:07:36.954Z,77051.06
2022-11-21T15:10:27.291Z,77059.16
2022-11-21T15:12:59.508Z,77069.28
2022-11-21T15:15:50.114Z,77063.22
2022-11-21T15:18:27.969Z,77071.31
2022-11-21T15:21:16.519Z,77071.31
2022-11-21T15:23:44.545Z,77071.31
2022-11-21T15:26:31.560Z,77067.28
2022-11-21T15:29:00.801Z,77063.22
2022-11-21T15:31:28.466Z,77081.47
2022-11-21T15:37:08.279Z,77079.44
2022-11-21T15:39:37.994Z,77083.50
2022-11-21T15:42:44.255Z,77087.53
2022-11-21T15:45:19.754Z,77091.59
2022-11-21T15:47:47.519Z,77091.59
2022-11-21T15:50:16.866Z,77103.75
2022-11-21T15:52:49.029Z,77097.69
2022-11-21T15:55:21.623Z,77103.75
2022-11-21T15:57:48.831Z,77115.94
2022-11-21T16:00:17.414Z,77097.69
2022-11-21T16:02:44.571Z,77095.66
2022-11-21T16:05:14.645Z,77095.66
2022-11-21T16:07:42.059Z,77095.66
2022-11-21T16:10:19.464Z,77103.75
2022-11-21T16:12:49.937Z,77119.97
2022-11-21T16:15:17.225Z,77111.88
2022-11-21T16:17:45.746Z,77115.94
2022-11-21T16:20:15.054Z,77122.00
2022-11-21T16:22:47.139Z,77111.88
2022-11-21T16:25:16.264Z,77115.94
2022-11-21T16:27:43.061Z,77117.94
2022-11-21T16:30:10.773Z,77115.94
2022-11-21T16:32:37.603Z,77115.94
2022-11-21T16:35:06.147Z,77124.03
2022-11-21T16:37:34.299Z,77124.03
2022-11-21T16:40:01.989Z,77115.94
2022-11-21T16:42:28.869Z,77119.97
2022-11-21T16:44:56.266Z,77117.94
2022-11-21T16:47:23.149Z,77111.88
2022-11-21T16:49:50.478Z,77115.94
2022-11-21T16:52:18.375Z,77111.88
2022-11-21T16:54:47.259Z,77105.78
2022-11-21T16:57:14.150Z,77103.75
2022-11-21T16:59:41.353Z,77099.72
2022-11-21T17:02:10.057Z,77099.72
2022-11-21T17:04:37.602Z,77099.72
2022-11-21T17:07:04.593Z,77103.75
2022-11-21T17:09:31.765Z,77107.81
2022-11-21T17:11:59.212Z,77099.72
2022-11-21T17:14:26.884Z,77095.66
2022-11-21T17:16:54.302Z,77095.66
2022-11-21T17:19:22.417Z,77091.59
2022-11-21T17:21:49.158Z,77091.59
2022-11-21T17:24:16.523Z,77091.59
2022-11-21T17:26:43.457Z,77087.53
2022-11-21T17:29:12.999Z,77081.47
2022-11-21T17:31:41.869Z,77079.44
2022-11-21T17:34:09.315Z,77083.50
2022-11-21T17:36:36.363Z,77079.44
2022-11-21T17:39:03.641Z,77075.38
2022-11-21T17:41:30.517Z,77077.41
2022-11-21T17:43:58.782Z,77075.38
2022-11-21T17:46:26.840Z,77075.38
2022-11-21T17:48:58.201Z,77075.38
2022-11-21T17:51:29.389Z,77081.47
2022-11-21T17:53:57.625Z,77077.41
2022-11-21T17:56:27.863Z,77079.44
2022-11-21T17:58:56.151Z,77079.44
2022-11-21T18:01:23.305Z,77073.34
2022-11-21T18:03:55.011Z,77071.31
2022-11-21T18:06:22.054Z,77073.34
2022-11-21T18:08:50.677Z,77067.28
2022-11-21T18:11:21.099Z,77059.16
2022-11-21T18:13:50.003Z,77051.06
2022-11-21T18:16:19.674Z,77057.13
2022-11-21T18:18:47.829Z,77055.09
2022-11-21T18:21:18.507Z,77051.06
2022-11-21T18:23:47.123Z,77051.06
2022-11-21T18:26:21.238Z,77067.28
2022-11-21T18:29:01.769Z,77057.13
2022-11-21T18:31:37.576Z,77055.09
2022-11-21T18:34:06.605Z,77051.06
2022-11-21T18:36:33.752Z,77034.84
2022-11-21T18:39:07.249Z,77038.88
2022-11-21T18:41:39.144Z,77032.81
2022-11-21T18:44:07.069Z,77030.78
2022-11-21T18:46:36.795Z,77018.63
2022-11-21T18:49:07.024Z,77018.63
2022-11-21T18:51:35.530Z,77022.66
2022-11-21T18:54:08.711Z,77014.56
2022-11-21T18:56:37.844Z,77014.56
2022-11-21T18:59:06.646Z,77014.56
2022-11-21T19:01:36.606Z,77018.63
2022-11-21T19:04:04.222Z,77020.63
2022-11-21T19:06:31.744Z,77024.69
2022-11-21T19:08:59.550Z,77024.69
2022-11-21T19:11:28.696Z,77018.63
2022-11-21T19:13:57.814Z,77016.59
2022-11-21T19:16:27.110Z,77018.63
2022-11-21T19:19:31.928Z,77014.56
2022-11-21T19:22:01.133Z,77006.44
2022-11-21T19:24:28.222Z,77002.41
2022-11-21T19:26:55.211Z,76998.34
2022-11-21T19:29:22.375Z,77002.41
2022-11-21T19:31:49.637Z,77002.41
2022-11-21T19:34:17.104Z,77002.41
2022-11-21T19:36:45.096Z,76998.34
2022-11-21T19:39:12.854Z,77010.50
2022-11-21T19:41:40.233Z,77002.41
2022-11-21T19:44:07.386Z,77004.41
2022-11-21T19:46:37.580Z,76998.34
2022-11-21T19:49:06.256Z,77008.47
2022-11-21T19:51:39.256Z,77006.44
2022-11-21T19:54:08.206Z,77014.56
2022-11-21T19:56:35.865Z,77014.56
2022-11-21T19:59:03.669Z,77010.50
2022-11-21T20:01:32.271Z,77010.50
2022-11-21T20:04:02.446Z,77018.63
2022-11-21T20:06:32.769Z,77014.56
2022-11-21T20:09:12.065Z,77022.66
2022-11-21T20:11:40.803Z,77034.84
2022-11-21T20:14:08.993Z,77038.88
2022-11-21T20:16:38.705Z,77030.78
2022-11-21T20:19:11.323Z,77030.78
2022-11-21T20:21:39.190Z,77034.84
2022-11-21T20:24:07.023Z,77026.72
2022-11-21T20:26:35.010Z,77022.66
2022-11-21T20:29:02.686Z,77022.66
2022-11-21T20:31:32.221Z,77018.63
2022-11-21T20:34:05.199Z,77026.72
2022-11-21T20:36:33.930Z,77030.78
2022-11-21T20:39:04.813Z,77032.81
2022-11-21T20:41:36.737Z,77026.72
2022-11-21T20:45:20.334Z,77026.72
2022-11-21T20:46:59.145Z,77030.78
2022-11-21T20:49:26.564Z,77034.84
2022-11-21T20:54:40.817Z,77065.25
2022-11-21T20:57:13.246Z,77057.13
2022-11-21T20:59:42.395Z,77067.28
2022-11-21T21:02:12.485Z,77071.31
2022-11-21T21:04:58.026Z,77069.28
2022-11-21T21:07:25.459Z,77067.28
2022-11-21T21:09:53.595Z,77063.22
2022-11-21T21:12:20.832Z,77067.28
2022-11-21T21:14:47.854Z,77061.19
2022-11-21T21:17:14.922Z,77063.22
2022-11-21T21:19:41.788Z,77059.16
2022-11-21T21:22:09.179Z,77059.16
2022-11-21T21:24:36.217Z,77051.06
2022-11-21T21:27:03.667Z,77051.06
2022-11-21T21:29:30.882Z,77059.16
2022-11-21T21:31:58.516Z,77063.22
2022-11-21T21:34:26.296Z,77057.13
2022-11-21T21:36:53.665Z,77071.31
2022-11-21T21:39:20.617Z,77063.22
2022-11-21T21:41:48.127Z,77063.22
2022-11-21T21:44:15.742Z,77069.28
2022-11-21T21:46:43.760Z,77065.25
2022-11-21T21:49:11.123Z,77073.34
2022-11-21T21:51:38.548Z,77075.38
2022-11-21T21:54:06.617Z,77077.41
2022-11-21T21:56:35.169Z,77075.38
2022-11-21T21:59:02.079Z,77079.44
2022-11-21T22:01:31.342Z,77071.31
2022-11-21T22:04:01.384Z,77063.22
2022-11-21T22:06:29.985Z,77063.22
2022-11-21T22:08:57.095Z,77067.28
2022-11-21T22:11:30.125Z,77067.28
2022-11-21T22:14:02.899Z,77065.25
2022-11-21T22:16:31.194Z,77067.28
2022-11-21T22:18:58.438Z,77063.22
2022-11-21T22:21:28.605Z,77071.31
2022-11-21T22:24:23.611Z,77075.38
2022-11-21T22:26:45.332Z,77075.38
2022-11-21T22:29:12.229Z,77075.38
2022-11-21T22:31:39.577Z,77073.34
2022-11-21T22:34:06.431Z,77071.31
2022-11-21T22:36:33.880Z,77075.38
2022-11-21T22:39:00.921Z,77071.31
2022-11-21T22:41:28.382Z,77075.38
2022-11-21T22:43:57.689Z,77075.38
2022-11-21T22:46:27.228Z,77067.28
2022-11-21T22:48:54.708Z,77077.41
2022-11-21T22:51:25.169Z,77067.28
2022-11-21T22:53:53.236Z,77067.28
2022-11-21T22:56:23.060Z,77067.28
2022-11-21T22:58:50.609Z,77071.31
2022-11-21T23:01:20.316Z,77077.41
2022-11-21T23:03:47.827Z,77079.44
2022-11-21T23:06:18.096Z,77081.47
2022-11-21T23:08:46.108Z,77079.44
2022-11-21T23:11:18.594Z,77087.53
2022-11-21T23:13:47.407Z,77085.50
2022-11-21T23:16:16.033Z,77087.53
2022-11-21T23:18:43.597Z,77083.50
2022-11-21T23:21:12.011Z,77083.50
2022-11-21T23:23:38.814Z,77083.50
2022-11-21T23:26:06.827Z,77085.50
2022-11-21T23:28:34.289Z,77091.59
2022-11-21T23:31:01.464Z,77085.50
2022-11-21T23:33:28.543Z,77087.53
2022-11-21T23:35:57.026Z,77079.44
2022-11-21T23:38:24.191Z,77079.44
2022-11-21T23:40:51.501Z,77079.44
2022-11-21T23:43:18.840Z,77083.50
2022-11-21T23:45:53.697Z,77083.50
2022-11-21T23:48:22.106Z,77079.44
2022-11-21T23:50:52.712Z,77087.53
2022-11-21T23:53:20.857Z,77083.50
2022-11-21T23:55:48.531Z,77087.53
2022-11-21T23:58:16.312Z,77083.50
